sensor_id;sensor_type;location;lat;lon;timestamp;pressure;altitude;pressure_sealevel;temperature;humidity
18500;BME280;9379;52.134;11.576;2023-04-23T18:04:03;99759.59;;;20.51;63.11
18500;BME280;9379;52.134;11.576;2023-04-23T18:06:30;99765.25;;;20.36;64.03
18500;BME280;9379;52.134;11.576;2023-04-23T18:08:57;99758.00;;;20.37;63.49
18500;BME280;9379;52.134;11.576;2023-04-23T18:11:25;99749.16;;;20.30;62.91
18500;BME280;9379;52.134;11.576;2023-04-23T18:13:51;99760.63;;;20.19;63.54
18500;BME280;9379;52.134;11.576;2023-04-23T18:16:18;99757.03;;;20.00;64.55
18500;BME280;9379;52.134;11.576;2023-04-23T18:18:45;99756.63;;;19.96;63.87
18500;BME280;9379;52.134;11.576;2023-04-23T18:21:15;99759.94;;;19.98;63.69
18500;BME280;9379;52.134;11.576;2023-04-23T18:23:42;99746.00;;;20.01;64.51
18500;BME280;9379;52.134;11.576;2023-04-23T18:26:08;99751.91;;;19.92;63.91
18500;BME280;9379;52.134;11.576;2023-04-23T18:28:35;99756.25;;;19.93;66.52
18500;BME280;9379;52.134;11.576;2023-04-23T18:31:03;99756.97;;;19.75;65.04
18500;BME280;9379;52.134;11.576;2023-04-23T18:33:34;99755.84;;;19.89;64.01
18500;BME280;9379;52.134;11.576;2023-04-23T18:36:04;99762.81;;;19.65;64.22
18500;BME280;9379;52.134;11.576;2023-04-23T18:38:42;99744.53;;;19.74;64.82
18500;BME280;9379;52.134;11.576;2023-04-23T18:41:09;99746.91;;;19.89;64.87
18500;BME280;9379;52.134;11.576;2023-04-23T18:43:36;99744.34;;;19.69;63.93
18500;BME280;9379;52.134;11.576;2023-04-23T18:46:02;99748.03;;;19.81;63.97
18500;BME280;9379;52.134;11.576;2023-04-23T18:48:44;99755.91;;;19.76;64.36
18500;BME280;9379;52.134;11.576;2023-04-23T18:51:19;99752.16;;;19.84;64.05
18500;BME280;9379;52.134;11.576;2023-04-23T18:53:52;99744.31;;;19.75;63.69
18500;BME280;9379;52.134;11.576;2023-04-23T18:56:19;99752.63;;;19.74;64.01
18500;BME280;9379;52.134;11.576;2023-04-23T18:58:45;99755.31;;;19.74;64.58
18500;BME280;9379;52.134;11.576;2023-04-23T19:01:12;99749.13;;;19.67;64.25
18500;BME280;9379;52.134;11.576;2023-04-23T19:03:39;99748.81;;;19.30;65.10
18500;BME280;9379;52.134;11.576;2023-04-23T19:06:06;99743.81;;;19.47;65.57
18500;BME280;9379;52.134;11.576;2023-04-23T19:08:33;99753.22;;;19.24;66.24
18500;BME280;9379;52.134;11.576;2023-04-23T19:11:02;99735.19;;;19.25;66.94
18500;BME280;9379;52.134;11.576;2023-04-23T19:13:29;99749.53;;;19.12;67.77
18500;BME280;9379;52.134;11.576;2023-04-23T19:15:55;99745.38;;;19.10;66.67
18500;BME280;9379;52.134;11.576;2023-04-23T19:18:22;99746.25;;;18.90;67.44
18500;BME280;9379;52.134;11.576;2023-04-23T19:20:50;99734.88;;;18.75;68.74
18500;BME280;9379;52.134;11.576;2023-04-23T19:23:17;99735.53;;;18.64;69.25
18500;BME280;9379;52.134;11.576;2023-04-23T19:25:43;99736.31;;;18.51;69.97
18500;BME280;9379;52.134;11.576;2023-04-23T19:28:12;99741.28;;;18.61;69.41
18500;BME280;9379;52.134;11.576;2023-04-23T19:30:39;99709.47;;;18.64;69.49
18500;BME280;9379;52.134;11.576;2023-04-23T19:33:05;99731.34;;;18.61;71.05
18500;BME280;9379;52.134;11.576;2023-04-23T19:35:32;99736.13;;;18.79;69.97
18500;BME280;9379;52.134;11.576;2023-04-23T19:37:59;99732.41;;;18.74;68.76
18500;BME280;9379;52.134;11.576;2023-04-23T19:40:26;99731.78;;;18.72;68.05
18500;BME280;9379;52.134;11.576;2023-04-23T19:42:53;99732.75;;;18.97;66.54
18500;BME280;9379;52.134;11.576;2023-04-23T19:45:21;99722.41;;;19.01;65.71
18500;BME280;9379;52.134;11.576;2023-04-23T19:47:48;99721.94;;;19.17;64.93
18500;BME280;9379;52.134;11.576;2023-04-23T19:50:15;99716.75;;;19.22;66.37
18500;BME280;9379;52.134;11.576;2023-04-23T19:52:43;99721.41;;;18.82;65.88
18500;BME280;9379;52.134;11.576;2023-04-23T19:55:11;99720.78;;;18.93;65.60
18500;BME280;9379;52.134;11.576;2023-04-23T19:57:38;99715.59;;;18.91;65.45
18500;BME280;9379;52.134;11.576;2023-04-23T20:00:05;99715.00;;;18.83;66.75
18500;BME280;9379;52.134;11.576;2023-04-23T20:02:38;99722.84;;;18.84;65.94
18500;BME280;9379;52.134;11.576;2023-04-23T20:05:06;99711.06;;;18.72;66.30
18500;BME280;9379;52.134;11.576;2023-04-23T20:07:34;99704.00;;;18.84;66.01
18500;BME280;9379;52.134;11.576;2023-04-23T20:10:01;99710.38;;;19.03;65.11
18500;BME280;9379;52.134;11.576;2023-04-23T20:12:28;99712.25;;;18.96;65.44
18500;BME280;9379;52.134;11.576;2023-04-23T20:14:57;99702.78;;;18.80;66.42
18500;BME280;9379;52.134;11.576;2023-04-23T20:17:24;99700.50;;;18.84;66.91
18500;BME280;9379;52.134;11.576;2023-04-23T20:19:52;99701.53;;;18.63;67.87
18500;BME280;9379;52.134;11.576;2023-04-23T20:22:19;99691.59;;;18.63;65.79
18500;BME280;9379;52.134;11.576;2023-04-23T20:24:46;99694.94;;;18.79;66.04
18500;BME280;9379;52.134;11.576;2023-04-23T20:27:13;99696.19;;;18.76;67.26
18500;BME280;9379;52.134;11.576;2023-04-23T20:29:41;99694.88;;;18.99;65.65
18500;BME280;9379;52.134;11.576;2023-04-23T20:32:07;99698.16;;;19.07;65.12
18500;BME280;9379;52.134;11.576;2023-04-23T20:34:34;99679.13;;;19.02;64.97
18500;BME280;9379;52.134;11.576;2023-04-23T20:37:03;99680.44;;;18.60;67.03
18500;BME280;9379;52.134;11.576;2023-04-23T20:39:31;99685.38;;;18.89;65.80
18500;BME280;9379;52.134;11.576;2023-04-23T20:41:58;99665.91;;;18.87;65.78
18500;BME280;9379;52.134;11.576;2023-04-23T20:44:26;99675.81;;;18.93;65.75
18500;BME280;9379;52.134;11.576;2023-04-23T20:46:53;99673.53;;;18.97;65.36
18500;BME280;9379;52.134;11.576;2023-04-23T20:49:22;99660.88;;;18.98;65.77
18500;BME280;9379;52.134;11.576;2023-04-23T20:51:49;99664.63;;;18.97;65.40
18500;BME280;9379;52.134;11.576;2023-04-23T20:54:17;99662.03;;;18.70;67.19
18500;BME280;9379;52.134;11.576;2023-04-23T20:56:44;99665.28;;;18.85;66.03
18500;BME280;9379;52.134;11.576;2023-04-23T20:59:11;99654.16;;;18.69;66.50
18500;BME280;9379;52.134;11.576;2023-04-23T21:01:38;99661.41;;;18.68;66.33
18500;BME280;9379;52.134;11.576;2023-04-23T21:04:05;99645.00;;;18.63;67.17
18500;BME280;9379;52.134;11.576;2023-04-23T21:06:32;99646.31;;;18.67;66.55
18500;BME280;9379;52.134;11.576;2023-04-23T21:08:59;99645.88;;;18.70;66.71
18500;BME280;9379;52.134;11.576;2023-04-23T21:11:28;99634.09;;;18.64;66.94
18500;BME280;9379;52.134;11.576;2023-04-23T21:13:55;99625.00;;;18.65;66.68
18500;BME280;9379;52.134;11.576;2023-04-23T21:16:22;99631.94;;;18.86;66.72
18500;BME280;9379;52.134;11.576;2023-04-23T21:18:49;99623.75;;;18.55;67.44
18500;BME280;9379;52.134;11.576;2023-04-23T21:21:15;99631.59;;;18.50;67.20
18500;BME280;9379;52.134;11.576;2023-04-23T21:23:42;99621.69;;;18.44;67.30
18500;BME280;9379;52.134;11.576;2023-04-23T21:26:09;99619.63;;;18.52;67.04
18500;BME280;9379;52.134;11.576;2023-04-23T21:28:37;99619.44;;;18.34;68.07
18500;BME280;9379;52.134;11.576;2023-04-23T21:31:08;99612.78;;;18.36;67.80
18500;BME280;9379;52.134;11.576;2023-04-23T21:33:35;99608.47;;;18.22;70.20
18500;BME280;9379;52.134;11.576;2023-04-23T21:36:03;99613.78;;;17.36;72.11
18500;BME280;9379;52.134;11.576;2023-04-23T21:38:30;99611.34;;;17.68;71.07
18500;BME280;9379;52.134;11.576;2023-04-23T21:40:57;99616.75;;;17.61;71.14
18500;BME280;9379;52.134;11.576;2023-04-23T21:43:24;99618.78;;;17.59;71.28
18500;BME280;9379;52.134;11.576;2023-04-23T21:45:53;99595.63;;;17.38;71.55
18500;BME280;9379;52.134;11.576;2023-04-23T21:48:19;99623.16;;;17.80;71.75
18500;BME280;9379;52.134;11.576;2023-04-23T21:50:47;99621.84;;;17.43;71.88
18500;BME280;9379;52.134;11.576;2023-04-23T21:53:14;99618.00;;;17.92;71.20
18500;BME280;9379;52.134;11.576;2023-04-23T21:55:40;99621.09;;;17.69;72.17
18500;BME280;9379;52.134;11.576;2023-04-23T21:58:07;99624.84;;;17.74;71.26
18500;BME280;9379;52.134;11.576;2023-04-23T22:00:34;99603.50;;;17.60;72.07
18500;BME280;9379;52.134;11.576;2023-04-23T22:03:03;99607.19;;;17.59;72.40
18500;BME280;9379;52.134;11.576;2023-04-23T22:05:31;99600.59;;;17.68;71.64
18500;BME280;9379;52.134;11.576;2023-04-23T22:07:58;99592.78;;;17.86;70.55
18500;BME280;9379;52.134;11.576;2023-04-23T22:10:25;99595.66;;;17.65;73.30
18500;BME280;9379;52.134;11.576;2023-04-23T22:12:51;99599.63;;;17.89;70.62
18500;BME280;9379;52.134;11.576;2023-04-23T22:15:19;99602.63;;;17.33;73.27
18500;BME280;9379;52.134;11.576;2023-04-23T22:17:46;99604.28;;;17.34;73.31
18500;BME280;9379;52.134;11.576;2023-04-23T22:20:17;99589.41;;;17.44;74.35
18500;BME280;9379;52.134;11.576;2023-04-23T22:22:48;99588.19;;;17.54;72.13
18500;BME280;9379;52.134;11.576;2023-04-23T22:25:17;99584.69;;;17.53;72.78
18500;BME280;9379;52.134;11.576;2023-04-23T22:27:44;99588.22;;;17.60;72.62
18500;BME280;9379;52.134;11.576;2023-04-23T22:30:11;99580.75;;;17.42;72.78
18500;BME280;9379;52.134;11.576;2023-04-23T22:32:38;99573.31;;;17.51;71.79
18500;BME280;9379;52.134;11.576;2023-04-23T22:35:06;99570.41;;;17.26;72.75
18500;BME280;9379;52.134;11.576;2023-04-23T22:37:35;99567.72;;;17.33;72.66
18500;BME280;9379;52.134;11.576;2023-04-23T22:40:02;99555.94;;;17.34;72.82
18500;BME280;9379;52.134;11.576;2023-04-23T22:42:29;99560.50;;;17.53;72.61
18500;BME280;9379;52.134;11.576;2023-04-23T22:44:56;99566.84;;;17.06;74.09
18500;BME280;9379;52.134;11.576;2023-04-23T22:47:23;99563.75;;;17.02;74.44
18500;BME280;9379;52.134;11.576;2023-04-23T22:49:50;99540.41;;;17.09;74.50
18500;BME280;9379;52.134;11.576;2023-04-23T22:52:17;99552.09;;;16.88;75.13
18500;BME280;9379;52.134;11.576;2023-04-23T22:54:45;99552.63;;;16.64;76.53
18500;BME280;9379;52.134;11.576;2023-04-23T22:57:13;99552.81;;;16.56;76.58
18500;BME280;9379;52.134;11.576;2023-04-23T22:59:39;99547.53;;;16.34;77.54
18500;BME280;9379;52.134;11.576;2023-04-23T23:02:06;99544.31;;;16.11;77.99
18500;BME280;9379;52.134;11.576;2023-04-23T23:04:33;99544.84;;;16.34;77.58
18500;BME280;9379;52.134;11.576;2023-04-23T23:07:02;99549.97;;;15.95;78.79
18500;BME280;9379;52.134;11.576;2023-04-23T23:09:29;99539.28;;;16.36;78.27
18500;BME280;9379;52.134;11.576;2023-04-23T23:11:58;99530.50;;;16.55;77.60
18500;BME280;9379;52.134;11.576;2023-04-23T23:14:25;99535.38;;;16.39;78.58
18500;BME280;9379;52.134;11.576;2023-04-23T23:16:53;99537.44;;;16.02;79.46
18500;BME280;9379;52.134;11.576;2023-04-23T23:19:20;99543.34;;;16.25;79.41
18500;BME280;9379;52.134;11.576;2023-04-23T23:21:47;99556.06;;;16.10;79.90
18500;BME280;9379;52.134;11.576;2023-04-23T23:24:14;99551.25;;;16.33;79.27
18500;BME280;9379;52.134;11.576;2023-04-23T23:26:41;99553.56;;;16.09;80.42
18500;BME280;9379;52.134;11.576;2023-04-23T23:29:10;99550.66;;;16.03;80.77
18500;BME280;9379;52.134;11.576;2023-04-23T23:31:36;99560.66;;;15.88;81.69
18500;BME280;9379;52.134;11.576;2023-04-23T23:34:03;99557.38;;;15.93;82.34
18500;BME280;9379;52.134;11.576;2023-04-23T23:36:33;99549.00;;;16.37;81.18
18500;BME280;9379;52.134;11.576;2023-04-23T23:39:00;99554.22;;;16.11;81.54
18500;BME280;9379;52.134;11.576;2023-04-23T23:41:26;99552.63;;;16.23;81.92
18500;BME280;9379;52.134;11.576;2023-04-23T23:43:53;99545.13;;;16.46;80.58
18500;BME280;9379;52.134;11.576;2023-04-23T23:46:21;99543.47;;;16.45;81.01
18500;BME280;9379;52.134;11.576;2023-04-23T23:48:49;99546.22;;;16.65;80.62
18500;BME280;9379;52.134;11.576;2023-04-23T23:51:16;99543.47;;;16.45;81.57
18500;BME280;9379;52.134;11.576;2023-04-23T23:53:43;99543.78;;;16.29;82.95
18500;BME280;9379;52.134;11.576;2023-04-23T23:56:10;99541.22;;;16.14;83.44
18500;BME280;9379;52.134;11.576;2023-04-23T23:58:36;99533.66;;;16.24;83.80
